Time;durP1;ratioP1;P1;durP2;ratioP2;P2;SDS_P1;SDS_P2;PMS_P1;PMS_P2;Temp;Humidity;BMP_temperature;BMP_pressure;BME280_temperature;BME280_humidity;BME280_pressure;Samples;Min_cycle;Max_cycle;Signal;HPM_P1;HPM_P2
2022/12/31 00:01:27;;;;;;;2.83;1.77;;;;;;;;;;5107343;28;20028;-59
2022/12/31 00:03:53;;;;;;;2.08;1.42;;;;;;;;;;5093117;28;20028;-60
2022/12/31 00:06:25;;;;;;;3.83;1.40;;;;;;;;;;5096427;28;20023;-61
2022/12/31 00:08:52;;;;;;;4.82;1.60;;;;;;;;;;5109390;28;20034;-60
2022/12/31 00:11:18;;;;;;;2.05;1.40;;;;;;;;;;5109805;28;20679;-61
2022/12/31 00:13:45;;;;;;;2.20;1.50;;;;;;;;;;5098634;28;20495;-60
2022/12/31 00:16:17;;;;;;;1.30;1.20;;;;;;;;;;5095830;28;20035;-61
2022/12/31 00:18:44;;;;;;;3.47;1.30;;;;;;;;;;5111399;28;20040;-60
2022/12/31 00:21:11;;;;;;;1.40;1.30;;;;;;;;;;5110519;28;20051;-60
2022/12/31 00:23:38;;;;;;;2.70;1.25;;;;;;;;;;5094519;28;20054;-61
2022/12/31 00:26:06;;;;;;;1.38;1.13;;;;;;;;;;5090766;28;20032;-60
2022/12/31 00:28:33;;;;;;;3.00;1.20;;;;;;;;;;5097801;28;20024;-59
2022/12/31 00:31:24;;;;;;;2.88;1.20;;;;;;;;;;5097824;28;20058;-61
2022/12/31 00:33:50;;;;;;;1.40;1.10;;;;;;;;;;5109884;28;20085;-61
2022/12/31 00:36:19;;;;;;;1.02;0.80;;;;;;;;;;5078025;28;20040;-61
2022/12/31 00:38:46;;;;;;;1.17;1.08;;;;;;;;;;5105787;28;20364;-61
2022/12/31 00:41:13;;;;;;;1.25;1.00;;;;;;;;;;5110364;28;20027;-60
2022/12/31 00:43:39;;;;;;;1.73;1.40;;;;;;;;;;5106625;28;20376;-60
2022/12/31 00:46:05;;;;;;;1.42;1.15;;;;;;;;;;5098563;28;20033;-60
2022/12/31 00:48:32;;;;;;;1.10;1.00;;;;;;;;;;5107094;28;20036;-60
2022/12/31 00:50:58;;;;;;;1.20;1.10;;;;;;;;;;5099981;28;20024;-61
2022/12/31 00:53:24;;;;;;;2.40;1.20;;;;;;;;;;5084206;28;20028;-61
2022/12/31 00:55:49;;;;;;;1.10;1.00;;;;;;;;;;5072755;28;20392;-61
2022/12/31 00:58:15;;;;;;;2.75;1.20;;;;;;;;;;5103748;28;20061;-61
2022/12/31 01:00:41;;;;;;;2.28;1.55;;;;;;;;;;5110670;28;20019;-60
2022/12/31 01:03:07;;;;;;;3.65;1.17;;;;;;;;;;5092523;28;20044;-60
2022/12/31 01:05:33;;;;;;;1.17;1.08;;;;;;;;;;5077629;28;20162;-60
2022/12/31 01:07:59;;;;;;;2.35;1.00;;;;;;;;;;5110230;28;20050;-60
2022/12/31 01:13:08;;;;;;;1.73;1.13;;;;;;;;;;5108850;28;20038;-61
2022/12/31 01:15:36;;;;;;;1.90;1.60;;;;;;;;;;5094807;28;20126;-61
2022/12/31 01:18:03;;;;;;;2.92;1.85;;;;;;;;;;5097239;28;20030;-60
2022/12/31 01:20:29;;;;;;;2.38;1.70;;;;;;;;;;5115774;28;20059;-60
2022/12/31 01:22:54;;;;;;;2.75;1.90;;;;;;;;;;5114686;28;20027;-60
2022/12/31 01:25:20;;;;;;;3.65;1.70;;;;;;;;;;5114632;28;20028;-60
2022/12/31 01:27:45;;;;;;;3.42;1.73;;;;;;;;;;5113173;28;20034;-60
2022/12/31 01:30:11;;;;;;;3.10;1.70;;;;;;;;;;5114640;28;20063;-60
2022/12/31 01:32:36;;;;;;;2.15;1.80;;;;;;;;;;5113201;28;20039;-60
2022/12/31 01:35:02;;;;;;;6.95;1.88;;;;;;;;;;5115050;28;20467;-60
2022/12/31 01:37:27;;;;;;;3.00;1.70;;;;;;;;;;5106177;28;20464;-60
2022/12/31 01:39:53;;;;;;;2.67;1.80;;;;;;;;;;5112883;28;20036;-60
2022/12/31 01:42:18;;;;;;;2.33;1.80;;;;;;;;;;5114361;28;20032;-59
2022/12/31 01:44:48;;;;;;;2.38;1.60;;;;;;;;;;5115152;28;20078;-58
2022/12/31 01:47:18;;;;;;;2.95;1.70;;;;;;;;;;5108849;28;20024;-60
2022/12/31 01:49:49;;;;;;;2.90;1.70;;;;;;;;;;5115334;28;20038;-60
2022/12/31 01:52:29;;;;;;;2.67;1.73;;;;;;;;;;5103379;28;20060;-59
2022/12/31 01:55:04;;;;;;;2.03;1.50;;;;;;;;;;5096496;28;20039;-59
2022/12/31 01:57:30;;;;;;;1.65;1.30;;;;;;;;;;5110886;28;20503;-60
2022/12/31 01:59:57;;;;;;;2.30;1.40;;;;;;;;;;5114933;28;20035;-60
2022/12/31 02:02:23;;;;;;;2.60;1.25;;;;;;;;;;5104209;28;20625;-59
2022/12/31 02:04:51;;;;;;;1.35;1.08;;;;;;;;;;5087569;28;20028;-60
2022/12/31 02:07:17;;;;;;;1.63;1.30;;;;;;;;;;5088239;28;20031;-60
2022/12/31 02:09:42;;;;;;;1.20;1.10;;;;;;;;;;5097077;28;20034;-60
2022/12/31 02:12:09;;;;;;;2.15;1.10;;;;;;;;;;5101556;28;20052;-60
2022/12/31 02:14:42;;;;;;;2.25;1.00;;;;;;;;;;5114607;28;20387;-60
2022/12/31 02:17:32;;;;;;;2.97;1.10;;;;;;;;;;5109777;28;20059;-60
2022/12/31 02:20:52;;;;;;;2.93;1.00;;;;;;;;;;5095711;28;20039;-60
2022/12/31 02:23:35;;;;;;;1.40;0.95;;;;;;;;;;5005071;28;20052;-59
2022/12/31 02:26:38;;;;;;;1.15;1.00;;;;;;;;;;5098583;28;20028;-60
2022/12/31 02:29:33;;;;;;;1.25;1.00;;;;;;;;;;5102256;28;20468;-61
2022/12/31 02:32:06;;;;;;;1.08;0.80;;;;;;;;;;5113606;28;20039;-60
2022/12/31 02:34:43;;;;;;;0.80;0.80;;;;;;;;;;5100771;28;20028;-60
2022/12/31 02:37:12;;;;;;;0.73;0.57;;;;;;;;;;5084539;28;20357;-60
2022/12/31 02:39:38;;;;;;;0.90;0.52;;;;;;;;;;5112642;28;20392;-60
2022/12/31 02:42:03;;;;;;;1.58;0.63;;;;;;;;;;5108429;28;20119;-60
2022/12/31 02:44:32;;;;;;;1.40;0.60;;;;;;;;;;5099803;28;20102;-60
2022/12/31 02:47:07;;;;;;;0.68;0.50;;;;;;;;;;5095480;28;20381;-59
2022/12/31 02:49:38;;;;;;;0.80;0.80;;;;;;;;;;5094002;28;20028;-59
2022/12/31 02:52:12;;;;;;;0.85;0.45;;;;;;;;;;5094426;28;20105;-59
2022/12/31 02:55:05;;;;;;;0.70;0.57;;;;;;;;;;5098470;28;20125;-59
2022/12/31 02:57:59;;;;;;;2.05;0.68;;;;;;;;;;5100812;28;20044;-59
2022/12/31 03:03:10;;;;;;;1.23;0.40;;;;;;;;;;5107234;28;20388;-60
2022/12/31 03:05:43;;;;;;;1.05;0.50;;;;;;;;;;5094506;28;20474;-59
2022/12/31 03:08:09;;;;;;;0.40;0.38;;;;;;;;;;5095358;28;20404;-60
2022/12/31 03:10:35;;;;;;;0.55;0.55;;;;;;;;;;5094126;28;20464;-59
2022/12/31 03:13:01;;;;;;;0.60;0.35;;;;;;;;;;5105300;28;20038;-59
2022/12/31 03:15:29;;;;;;;0.30;0.30;;;;;;;;;;5112587;28;20027;-59
2022/12/31 03:18:00;;;;;;;0.55;0.30;;;;;;;;;;5112038;28;20034;-59
2022/12/31 03:23:25;;;;;;;0.68;0.28;;;;;;;;;;5110391;28;20115;-60
2022/12/31 03:25:52;;;;;;;0.30;0.30;;;;;;;;;;5111159;28;20034;-59
2022/12/31 03:28:19;;;;;;;2.50;0.55;;;;;;;;;;5087827;28;20027;-60
2022/12/31 03:30:48;;;;;;;0.30;0.30;;;;;;;;;;5100854;28;20037;-60
2022/12/31 03:33:14;;;;;;;1.67;0.52;;;;;;;;;;5112483;28;20123;-60
2022/12/31 03:35:41;;;;;;;0.50;0.35;;;;;;;;;;5090966;28;20098;-60
2022/12/31 03:38:07;;;;;;;0.40;0.40;;;;;;;;;;5110236;28;20035;-59
2022/12/31 03:40:40;;;;;;;2.53;0.30;;;;;;;;;;5111133;28;20025;-60
2022/12/31 03:43:05;;;;;;;0.35;0.30;;;;;;;;;;5110194;28;20027;-59
2022/12/31 03:45:31;;;;;;;0.40;0.40;;;;;;;;;;5092375;28;20112;-60
2022/12/31 03:47:57;;;;;;;0.60;0.57;;;;;;;;;;5091420;28;20118;-59
2022/12/31 03:50:23;;;;;;;0.30;0.30;;;;;;;;;;5091818;28;20032;-60
2022/12/31 03:52:48;;;;;;;1.75;0.60;;;;;;;;;;5093363;28;20449;-59
2022/12/31 03:55:14;;;;;;;3.05;0.50;;;;;;;;;;5077863;28;20028;-60
2022/12/31 03:57:39;;;;;;;0.52;0.52;;;;;;;;;;5094784;28;20032;-60
2022/12/31 04:00:08;;;;;;;0.77;0.50;;;;;;;;;;5106675;28;20031;-60
2022/12/31 04:02:33;;;;;;;0.40;0.40;;;;;;;;;;5093559;28;20043;-59
2022/12/31 04:04:59;;;;;;;2.35;0.43;;;;;;;;;;5093419;28;20396;-60
2022/12/31 04:07:24;;;;;;;0.93;0.60;;;;;;;;;;5100631;28;20035;-60
2022/12/31 04:09:49;;;;;;;1.10;0.52;;;;;;;;;;5094516;28;20036;-59
2022/12/31 04:12:15;;;;;;;0.50;0.50;;;;;;;;;;5088395;28;20129;-60
2022/12/31 04:14:40;;;;;;;1.50;0.68;;;;;;;;;;5092117;28;20479;-60
2022/12/31 04:17:06;;;;;;;0.82;0.50;;;;;;;;;;5092357;28;20446;-58
2022/12/31 04:19:31;;;;;;;0.57;0.57;;;;;;;;;;5101431;28;20744;-58
2022/12/31 04:21:57;;;;;;;0.57;0.57;;;;;;;;;;5102965;28;20397;-58
2022/12/31 04:24:22;;;;;;;0.93;0.70;;;;;;;;;;5103095;28;20045;-59
2022/12/31 04:26:48;;;;;;;2.67;1.00;;;;;;;;;;5094024;28;20036;-59
2022/12/31 04:29:13;;;;;;;3.80;1.10;;;;;;;;;;5107516;28;20034;-59
2022/12/31 04:31:39;;;;;;;1.83;0.82;;;;;;;;;;5108797;28;20028;-59
2022/12/31 04:34:04;;;;;;;1.23;0.82;;;;;;;;;;5094772;28;20457;-59
2022/12/31 04:36:30;;;;;;;3.20;1.00;;;;;;;;;;5094854;28;20358;-59
2022/12/31 04:38:55;;;;;;;3.20;0.85;;;;;;;;;;5110249;28;20032;-59
2022/12/31 04:41:21;;;;;;;0.80;0.60;;;;;;;;;;5107522;28;20073;-61
2022/12/31 04:43:50;;;;;;;2.05;0.68;;;;;;;;;;5108695;28;20452;-58
2022/12/31 04:46:18;;;;;;;0.40;0.40;;;;;;;;;;5100835;28;20024;-59
2022/12/31 04:48:44;;;;;;;4.13;0.68;;;;;;;;;;5092552;28;20055;-59
2022/12/31 04:51:10;;;;;;;1.33;0.60;;;;;;;;;;5091279;28;20028;-59
2022/12/31 04:53:35;;;;;;;3.35;0.52;;;;;;;;;;5092566;28;20039;-60
2022/12/31 04:56:01;;;;;;;1.27;0.60;;;;;;;;;;5096322;28;20112;-60
2022/12/31 04:58:27;;;;;;;1.88;0.73;;;;;;;;;;5107096;28;20040;-59
2022/12/31 05:00:54;;;;;;;0.40;0.40;;;;;;;;;;5093319;28;20031;-59
2022/12/31 05:03:20;;;;;;;0.40;0.40;;;;;;;;;;5091065;28;20024;-59
2022/12/31 05:05:46;;;;;;;2.60;0.65;;;;;;;;;;5106245;28;20062;-59
2022/12/31 05:08:12;;;;;;;1.40;0.60;;;;;;;;;;5074651;28;20457;-59
2022/12/31 05:10:43;;;;;;;0.55;0.40;;;;;;;;;;5092648;28;20024;-59
2022/12/31 05:13:09;;;;;;;1.02;0.52;;;;;;;;;;5093448;28;20434;-59
2022/12/31 05:15:34;;;;;;;2.00;0.65;;;;;;;;;;5090556;28;20492;-59
2022/12/31 05:18:00;;;;;;;1.33;0.50;;;;;;;;;;5093768;28;20047;-59
2022/12/31 05:20:25;;;;;;;0.43;0.43;;;;;;;;;;5109972;28;20061;-60
2022/12/31 05:22:51;;;;;;;0.60;0.60;;;;;;;;;;5109483;28;20437;-60
2022/12/31 05:25:16;;;;;;;0.65;0.40;;;;;;;;;;5104598;28;20081;-60
2022/12/31 05:27:42;;;;;;;1.27;0.47;;;;;;;;;;5106584;28;20102;-60
2022/12/31 05:30:07;;;;;;;1.85;0.60;;;;;;;;;;5106932;28;20118;-61
2022/12/31 05:32:33;;;;;;;1.27;0.60;;;;;;;;;;5110160;28;20948;-60
2022/12/31 05:34:59;;;;;;;1.23;0.60;;;;;;;;;;5109373;28;20106;-60
2022/12/31 05:37:26;;;;;;;0.70;0.45;;;;;;;;;;5110998;28;20057;-60
2022/12/31 05:39:51;;;;;;;0.75;0.40;;;;;;;;;;5110588;28;20482;-60
2022/12/31 05:42:17;;;;;;;1.38;0.47;;;;;;;;;;5107802;28;20055;-62
2022/12/31 05:44:42;;;;;;;0.95;0.40;;;;;;;;;;5108441;28;20361;-59
2022/12/31 05:47:08;;;;;;;2.00;0.70;;;;;;;;;;5111906;28;20062;-59
2022/12/31 05:49:33;;;;;;;6.50;0.63;;;;;;;;;;5087376;28;20046;-59
2022/12/31 05:51:59;;;;;;;1.25;0.50;;;;;;;;;;5100846;28;20027;-59
2022/12/31 05:54:24;;;;;;;2.35;0.60;;;;;;;;;;5076463;28;20028;-59
2022/12/31 05:56:50;;;;;;;0.47;0.40;;;;;;;;;;5079659;28;20485;-59
2022/12/31 05:59:15;;;;;;;0.47;0.40;;;;;;;;;;5090934;28;20529;-61
2022/12/31 06:01:40;;;;;;;0.63;0.40;;;;;;;;;;5113078;28;20038;-60
2022/12/31 06:04:06;;;;;;;0.52;0.40;;;;;;;;;;5113839;28;20388;-59
2022/12/31 06:06:31;;;;;;;1.02;0.68;;;;;;;;;;5114065;28;20032;-59
2022/12/31 06:08:57;;;;;;;1.13;0.55;;;;;;;;;;5108467;28;20053;-59
2022/12/31 06:11:22;;;;;;;1.40;0.40;;;;;;;;;;5091923;28;20036;-59
2022/12/31 06:13:48;;;;;;;1.70;0.60;;;;;;;;;;5114748;28;20059;-58
2022/12/31 06:16:13;;;;;;;2.53;0.77;;;;;;;;;;5112775;28;20033;-59
2022/12/31 06:18:38;;;;;;;1.05;0.50;;;;;;;;;;5113207;28;20035;-59
2022/12/31 06:21:04;;;;;;;0.73;0.57;;;;;;;;;;5111932;28;20455;-58
2022/12/31 06:23:30;;;;;;;2.42;0.55;;;;;;;;;;5112062;28;20034;-58
2022/12/31 06:25:55;;;;;;;0.85;0.50;;;;;;;;;;5094156;28;20032;-57
2022/12/31 06:28:21;;;;;;;0.70;0.60;;;;;;;;;;5114071;28;20368;-59
2022/12/31 06:30:47;;;;;;;0.90;0.50;;;;;;;;;;5112416;28;20035;-58
2022/12/31 06:33:13;;;;;;;0.68;0.60;;;;;;;;;;5114481;28;20031;-57
2022/12/31 06:35:38;;;;;;;2.13;0.80;;;;;;;;;;5113107;28;20083;-58
2022/12/31 06:38:04;;;;;;;1.90;0.68;;;;;;;;;;5076156;28;20081;-56
2022/12/31 06:40:29;;;;;;;3.40;0.60;;;;;;;;;;5107421;28;20051;-57
2022/12/31 06:42:54;;;;;;;1.13;0.50;;;;;;;;;;5113054;28;20103;-55
2022/12/31 06:45:20;;;;;;;1.75;0.55;;;;;;;;;;5093584;28;20039;-57
2022/12/31 06:47:45;;;;;;;1.17;0.70;;;;;;;;;;5093973;28;20357;-58
2022/12/31 06:50:10;;;;;;;2.15;0.95;;;;;;;;;;5110581;28;20034;-58
2022/12/31 06:52:36;;;;;;;1.20;0.65;;;;;;;;;;5113348;28;20027;-58
2022/12/31 06:55:03;;;;;;;1.70;0.80;;;;;;;;;;5094667;28;20036;-57
2022/12/31 06:57:29;;;;;;;1.55;0.50;;;;;;;;;;5092800;28;20370;-58
2022/12/31 06:59:55;;;;;;;1.55;0.55;;;;;;;;;;5092979;28;20042;-56
2022/12/31 07:02:35;;;;;;;0.38;0.38;;;;;;;;;;5100659;28;20035;-60
2022/12/31 07:05:08;;;;;;;1.20;0.50;;;;;;;;;;5106915;28;20037;-59
2022/12/31 07:07:52;;;;;;;1.70;0.70;;;;;;;;;;5110607;28;20364;-59
2022/12/31 07:10:45;;;;;;;0.85;0.60;;;;;;;;;;5102442;28;20457;-59
2022/12/31 07:13:24;;;;;;;1.13;0.60;;;;;;;;;;5112880;28;20039;-59
2022/12/31 07:16:08;;;;;;;1.95;0.73;;;;;;;;;;5111947;28;20023;-59
2022/12/31 07:18:49;;;;;;;0.75;0.40;;;;;;;;;;5109505;28;20031;-58
2022/12/31 07:21:20;;;;;;;2.60;0.85;;;;;;;;;;5113957;28;20032;-56
2022/12/31 07:23:46;;;;;;;0.98;0.60;;;;;;;;;;5110818;28;20031;-54
2022/12/31 07:26:27;;;;;;;1.02;0.50;;;;;;;;;;5113249;28;20034;-56
2022/12/31 07:28:58;;;;;;;1.52;0.60;;;;;;;;;;5108685;28;20027;-55
2022/12/31 07:32:01;;;;;;;1.65;0.80;;;;;;;;;;5108157;28;20060;-59
2022/12/31 07:34:48;;;;;;;2.03;0.82;;;;;;;;;;5094782;28;20035;-56
2022/12/31 07:37:22;;;;;;;0.65;0.52;;;;;;;;;;5113564;28;20107;-55
2022/12/31 07:40:05;;;;;;;0.65;0.63;;;;;;;;;;5073989;28;20032;-57
2022/12/31 07:42:41;;;;;;;2.35;0.68;;;;;;;;;;5100942;28;20110;-57
2022/12/31 07:45:18;;;;;;;1.83;0.90;;;;;;;;;;5113637;28;20042;-60
2022/12/31 07:47:43;;;;;;;0.82;0.63;;;;;;;;;;5088066;28;20607;-58
2022/12/31 07:50:17;;;;;;;2.65;0.75;;;;;;;;;;5109806;28;20486;-57
2022/12/31 07:52:43;;;;;;;2.72;0.90;;;;;;;;;;5109982;28;20027;-56
2022/12/31 07:55:09;;;;;;;2.05;1.00;;;;;;;;;;5098795;28;20028;-58
2022/12/31 07:57:46;;;;;;;1.13;0.70;;;;;;;;;;5106846;28;20058;-57
2022/12/31 08:00:13;;;;;;;1.58;0.73;;;;;;;;;;5092960;28;20032;-58
2022/12/31 08:02:41;;;;;;;3.33;0.88;;;;;;;;;;5108258;28;20028;-58
2022/12/31 08:05:30;;;;;;;1.27;0.70;;;;;;;;;;5112804;28;20118;-58
2022/12/31 08:08:38;;;;;;;3.33;0.65;;;;;;;;;;5098401;28;20495;-60
2022/12/31 08:11:06;;;;;;;7.40;0.60;;;;;;;;;;5107107;28;20036;-59
2022/12/31 08:13:32;;;;;;;1.65;0.77;;;;;;;;;;5092071;28;20089;-60
2022/12/31 08:15:59;;;;;;;1.73;0.77;;;;;;;;;;5096299;28;20111;-59
2022/12/31 08:18:24;;;;;;;2.25;1.05;;;;;;;;;;5111820;28;20373;-60
2022/12/31 08:20:56;;;;;;;3.60;1.10;;;;;;;;;;5093309;28;20565;-59
2022/12/31 08:23:38;;;;;;;1.85;0.70;;;;;;;;;;5111765;28;20153;-59
2022/12/31 08:26:16;;;;;;;3.03;0.90;;;;;;;;;;5111139;28;20537;-59
2022/12/31 08:28:55;;;;;;;3.72;1.05;;;;;;;;;;5110383;28;20027;-59
2022/12/31 08:31:32;;;;;;;0.77;0.70;;;;;;;;;;5111867;28;20042;-59
2022/12/31 08:34:18;;;;;;;2.28;0.90;;;;;;;;;;5111578;28;20521;-58
2022/12/31 08:37:09;;;;;;;1.80;0.77;;;;;;;;;;5111671;28;20118;-60
2022/12/31 08:39:46;;;;;;;;;;;;;;;;;;5107135;28;20031;-57
2022/12/31 08:42:47;;;;;;;2.63;0.90;;;;;;;;;;5104791;28;19919;-60
2022/12/31 08:45:19;;;;;;;3.53;0.90;;;;;;;;;;5092010;28;20032;-58
2022/12/31 08:48:29;;;;;;;1.20;1.00;;;;;;;;;;5092399;28;20031;-60
2022/12/31 08:50:55;;;;;;;2.27;0.73;;;;;;;;;;5106666;28;20032;-58
2022/12/31 08:53:21;;;;;;;1.15;0.85;;;;;;;;;;5111806;28;20027;-59
2022/12/31 08:55:51;;;;;;;1.90;0.80;;;;;;;;;;5107683;28;20637;-59
2022/12/31 08:58:34;;;;;;;2.55;0.88;;;;;;;;;;5105524;28;20149;-60
2022/12/31 09:01:00;;;;;;;2.20;0.80;;;;;;;;;;5100734;28;20535;-59
2022/12/31 09:03:42;;;;;;;3.53;0.73;;;;;;;;;;5091106;28;20035;-60
2022/12/31 09:06:13;;;;;;;1.08;0.80;;;;;;;;;;5096744;28;20042;-57
2022/12/31 09:08:44;;;;;;;1.50;0.70;;;;;;;;;;5108131;28;20031;-59
2022/12/31 09:11:24;;;;;;;0.50;0.50;;;;;;;;;;5109626;28;20110;-59
2022/12/31 09:13:53;;;;;;;1.27;0.80;;;;;;;;;;5110313;28;20039;-58
2022/12/31 09:16:45;;;;;;;1.80;0.90;;;;;;;;;;5104638;28;20032;-57
2022/12/31 09:19:10;;;;;;;1.17;0.80;;;;;;;;;;5105656;28;20114;-59
2022/12/31 09:21:37;;;;;;;2.78;0.70;;;;;;;;;;5093207;28;20434;-59
2022/12/31 09:24:03;;;;;;;3.78;0.88;;;;;;;;;;5090577;28;20036;-59
2022/12/31 09:26:36;;;;;;;3.65;0.90;;;;;;;;;;5094183;28;20027;-59
2022/12/31 09:29:15;;;;;;;1.77;0.80;;;;;;;;;;5111678;28;20375;-59
2022/12/31 09:32:21;;;;;;;1.33;0.60;;;;;;;;;;5107881;28;20108;-61
2022/12/31 09:34:59;;;;;;;3.38;1.20;;;;;;;;;;5102766;28;20873;-60
2022/12/31 09:37:51;;;;;;;1.17;0.90;;;;;;;;;;5095110;28;20028;-60
2022/12/31 09:40:23;;;;;;;1.60;0.80;;;;;;;;;;5099403;28;20589;-57
2022/12/31 09:42:58;;;;;;;5.18;1.13;;;;;;;;;;5114475;28;20105;-57
2022/12/31 09:45:36;;;;;;;2.58;0.85;;;;;;;;;;5113922;28;20031;-59
2022/12/31 09:48:29;;;;;;;1.08;0.80;;;;;;;;;;5115101;28;20035;-58
2022/12/31 09:51:13;;;;;;;2.15;1.15;;;;;;;;;;5106733;28;20069;-59
2022/12/31 09:54:19;;;;;;;1.60;0.88;;;;;;;;;;5111432;28;20106;-59
2022/12/31 09:56:49;;;;;;;1.60;0.80;;;;;;;;;;5053455;28;20370;-59
2022/12/31 09:59:36;;;;;;;2.13;1.20;;;;;;;;;;5095500;28;20459;-59
2022/12/31 10:02:12;;;;;;;2.55;1.10;;;;;;;;;;5110008;28;20039;-59
2022/12/31 10:05:08;;;;;;;1.88;0.95;;;;;;;;;;5113626;28;20024;-60
2022/12/31 10:07:55;;;;;;;2.03;0.98;;;;;;;;;;5079494;28;20061;-60
2022/12/31 10:10:56;;;;;;;5.63;1.30;;;;;;;;;;5096759;28;20481;-60
2022/12/31 10:13:36;;;;;;;3.15;1.00;;;;;;;;;;5102988;28;20051;-60
2022/12/31 10:16:23;;;;;;;3.05;1.15;;;;;;;;;;5115339;28;20035;-60
2022/12/31 10:18:51;;;;;;;3.63;1.00;;;;;;;;;;5111041;28;20709;-60
2022/12/31 10:21:29;;;;;;;1.88;0.95;;;;;;;;;;5094805;28;20445;-60
2022/12/31 10:24:31;;;;;;;3.90;1.33;;;;;;;;;;5112392;28;20039;-60
2022/12/31 10:27:24;;;;;;;4.57;1.10;;;;;;;;;;5109307;28;20430;-59
2022/12/31 10:29:58;;;;;;;1.88;0.98;;;;;;;;;;5055812;28;20043;-59
2022/12/31 10:32:51;;;;;;;4.43;1.23;;;;;;;;;;5101403;28;20044;-59
2022/12/31 10:35:42;;;;;;;1.30;0.80;;;;;;;;;;5114535;28;20024;-54
2022/12/31 10:38:13;;;;;;;2.58;1.00;;;;;;;;;;5112481;28;20110;-58
2022/12/31 10:41:20;;;;;;;1.02;0.90;;;;;;;;;;5095087;28;20486;-55
2022/12/31 10:44:07;;;;;;;4.53;1.20;;;;;;;;;;5103879;28;20032;-56
2022/12/31 10:47:10;;;;;;;2.72;0.98;;;;;;;;;;5093405;28;20396;-59
2022/12/31 10:49:47;;;;;;;2.33;1.17;;;;;;;;;;5097611;28;20460;-59
2022/12/31 10:52:48;;;;;;;2.03;1.00;;;;;;;;;;5085045;28;20032;-57
2022/12/31 10:55:41;;;;;;;1.30;0.93;;;;;;;;;;5065762;28;20051;-56
2022/12/31 10:58:25;;;;;;;2.60;0.90;;;;;;;;;;5113927;28;20074;-59
2022/12/31 11:01:02;;;;;;;1.70;0.93;;;;;;;;;;5109059;28;20042;-58
2022/12/31 11:04:13;;;;;;;6.10;1.10;;;;;;;;;;5095638;28;20156;-58
2022/12/31 11:06:56;;;;;;;3.80;0.90;;;;;;;;;;5073510;28;20031;-57
2022/12/31 11:10:03;;;;;;;2.88;1.00;;;;;;;;;;5113298;28;20387;-57
2022/12/31 11:13:00;;;;;;;3.30;1.10;;;;;;;;;;5114154;28;20088;-60
2022/12/31 11:15:51;;;;;;;1.50;0.88;;;;;;;;;;5112422;28;20031;-59
2022/12/31 11:18:39;;;;;;;1.02;0.80;;;;;;;;;;5112937;28;20114;-59
2022/12/31 11:21:20;;;;;;;6.50;1.10;;;;;;;;;;5106626;28;20043;-59
2022/12/31 11:23:54;;;;;;;;;;;;;;;;;;5112383;28;20109;-60
2022/12/31 11:26:41;;;;;;;5.78;1.13;;;;;;;;;;5094396;28;19915;-60
2022/12/31 11:29:41;;;;;;;2.58;1.00;;;;;;;;;;5112745;28;20072;-58
2022/12/31 11:32:21;;;;;;;1.53;0.90;;;;;;;;;;5102746;28;20039;-60
2022/12/31 11:34:47;;;;;;;1.35;1.10;;;;;;;;;;5090870;28;20751;-58
2022/12/31 11:37:30;;;;;;;1.63;0.88;;;;;;;;;;5113219;28;20106;-60
2022/12/31 11:40:13;;;;;;;5.25;1.20;;;;;;;;;;5100037;28;20224;-58
2022/12/31 11:42:56;;;;;;;3.78;1.20;;;;;;;;;;5111561;28;20110;-60
2022/12/31 11:45:46;;;;;;;3.53;1.17;;;;;;;;;;5093586;28;20063;-60
2022/12/31 11:48:33;;;;;;;2.47;1.00;;;;;;;;;;5100367;28;20031;-61
2022/12/31 11:51:13;;;;;;;2.33;1.20;;;;;;;;;;5100600;28;20027;-61
2022/12/31 11:53:48;;;;;;;2.95;1.05;;;;;;;;;;5092547;28;20038;-62
2022/12/31 11:56:18;;;;;;;3.63;1.10;;;;;;;;;;5101468;28;20123;-58
2022/12/31 11:58:49;;;;;;;4.63;1.20;;;;;;;;;;5104022;28;20067;-56
2022/12/31 12:01:30;;;;;;;1.98;0.90;;;;;;;;;;5103022;28;20042;-58
2022/12/31 12:03:56;;;;;;;1.20;0.90;;;;;;;;;;5110583;28;20024;-59
2022/12/31 12:06:29;;;;;;;3.00;1.10;;;;;;;;;;5086740;28;20039;-61
2022/12/31 12:09:10;;;;;;;2.47;1.10;;;;;;;;;;5103735;28;20043;-57
2022/12/31 12:11:38;;;;;;;2.95;1.30;;;;;;;;;;5084890;28;20108;-59
2022/12/31 12:14:34;;;;;;;1.85;0.95;;;;;;;;;;5109564;28;20027;-58
2022/12/31 12:17:00;;;;;;;3.40;1.05;;;;;;;;;;5111603;28;20035;-58
2022/12/31 12:19:31;;;;;;;3.05;1.13;;;;;;;;;;5111011;28;20028;-59
2022/12/31 12:21:57;;;;;;;2.13;1.00;;;;;;;;;;5105402;28;20496;-59
2022/12/31 12:24:29;;;;;;;3.10;1.00;;;;;;;;;;5088388;28;20032;-59
2022/12/31 12:26:56;;;;;;;3.58;1.20;;;;;;;;;;5106741;28;20043;-57
2022/12/31 12:29:33;;;;;;;2.80;0.98;;;;;;;;;;5102070;28;20146;-59
2022/12/31 12:31:58;;;;;;;3.60;1.10;;;;;;;;;;5090072;28;20425;-58
2022/12/31 12:34:35;;;;;;;4.00;1.25;;;;;;;;;;5111106;28;20039;-58
2022/12/31 12:37:00;;;;;;;1.95;0.90;;;;;;;;;;5099945;28;20531;-56
2022/12/31 12:39:28;;;;;;;4.00;1.30;;;;;;;;;;5107650;28;20047;-59
2022/12/31 12:42:12;;;;;;;4.35;1.20;;;;;;;;;;5109110;28;20051;-59
2022/12/31 12:44:39;;;;;;;4.53;1.40;;;;;;;;;;5103827;28;20020;-61
2022/12/31 12:47:07;;;;;;;4.13;1.17;;;;;;;;;;5110379;28;20036;-61
2022/12/31 12:49:44;;;;;;;3.72;1.30;;;;;;;;;;5110156;28;20035;-60
2022/12/31 12:52:44;;;;;;;5.82;1.30;;;;;;;;;;5108401;28;20036;-61
2022/12/31 12:55:23;;;;;;;5.28;1.50;;;;;;;;;;5100242;28;20439;-60
2022/12/31 12:58:01;;;;;;;3.60;1.30;;;;;;;;;;5090461;28;20484;-60
2022/12/31 13:00:37;;;;;;;5.22;1.67;;;;;;;;;;5110155;28;20375;-60
2022/12/31 13:03:28;;;;;;;3.25;1.30;;;;;;;;;;5108910;28;20092;-60
2022/12/31 13:06:19;;;;;;;4.30;1.40;;;;;;;;;;5054941;28;20043;-60
2022/12/31 13:09:02;;;;;;;2.60;1.20;;;;;;;;;;5110558;28;20035;-60
2022/12/31 13:11:57;;;;;;;2.60;1.00;;;;;;;;;;5094721;28;20279;-60
2022/12/31 13:14:35;;;;;;;2.42;1.13;;;;;;;;;;5107084;28;20434;-60
2022/12/31 13:17:26;;;;;;;4.28;1.13;;;;;;;;;;5100543;28;20281;-60
2022/12/31 13:19:56;;;;;;;3.25;1.30;;;;;;;;;;5109124;28;20512;-60
2022/12/31 13:22:27;;;;;;;2.90;1.15;;;;;;;;;;5115455;28;20031;-59
2022/12/31 13:25:16;;;;;;;2.42;1.30;;;;;;;;;;5102413;28;20103;-61
2022/12/31 13:27:49;;;;;;;4.60;1.45;;;;;;;;;;5101236;28;20028;-60
2022/12/31 13:30:14;;;;;;;2.30;1.00;;;;;;;;;;5114925;28;20028;-60
2022/12/31 13:32:43;;;;;;;3.00;1.40;;;;;;;;;;5113268;28;20047;-60
2022/12/31 13:35:27;;;;;;;3.03;1.20;;;;;;;;;;5076529;28;20031;-60
2022/12/31 13:38:00;;;;;;;2.72;1.25;;;;;;;;;;5109063;28;20024;-60
2022/12/31 13:40:47;;;;;;;2.90;1.40;;;;;;;;;;5100290;28;20433;-60
2022/12/31 13:43:36;;;;;;;7.68;1.67;;;;;;;;;;5114790;28;20031;-61
2022/12/31 13:46:27;;;;;;;2.10;1.10;;;;;;;;;;5105383;28;20035;-61
2022/12/31 13:48:57;;;;;;;4.55;1.40;;;;;;;;;;5082974;28;20044;-61
2022/12/31 13:51:49;;;;;;;2.63;1.37;;;;;;;;;;5110711;28;20030;-61
2022/12/31 13:54:14;;;;;;;2.88;1.30;;;;;;;;;;5099478;28;20036;-60
2022/12/31 13:56:43;;;;;;;2.90;1.17;;;;;;;;;;5095831;28;20055;-59
2022/12/31 13:59:35;;;;;;;3.55;1.27;;;;;;;;;;5107338;28;20044;-61
2022/12/31 14:02:24;;;;;;;2.95;1.50;;;;;;;;;;5103845;28;20035;-61
2022/12/31 14:04:57;;;;;;;3.42;1.45;;;;;;;;;;5081602;28;20122;-62
2022/12/31 14:07:33;;;;;;;4.80;1.42;;;;;;;;;;5114871;28;20038;-60
2022/12/31 14:09:59;;;;;;;4.03;1.38;;;;;;;;;;5112734;28;20028;-61
2022/12/31 14:12:33;;;;;;;4.68;1.45;;;;;;;;;;5113311;28;20027;-61
2022/12/31 14:15:04;;;;;;;3.47;1.40;;;;;;;;;;5112654;28;20387;-61
2022/12/31 14:17:44;;;;;;;4.40;1.42;;;;;;;;;;5107967;28;20103;-61
2022/12/31 14:20:28;;;;;;;2.97;1.30;;;;;;;;;;5101527;28;20057;-59
2022/12/31 14:23:21;;;;;;;4.70;1.50;;;;;;;;;;5113172;28;20043;-59
2022/12/31 14:25:59;;;;;;;4.70;1.35;;;;;;;;;;5102584;28;20038;-62
2022/12/31 14:28:34;;;;;;;5.15;1.40;;;;;;;;;;5112300;28;20031;-61
2022/12/31 14:31:13;;;;;;;4.63;1.50;;;;;;;;;;5080728;28;20043;-61
2022/12/31 14:33:55;;;;;;;5.18;1.40;;;;;;;;;;5107362;28;20114;-61
2022/12/31 14:36:41;;;;;;;4.43;1.50;;;;;;;;;;5093867;28;20036;-61
2022/12/31 14:39:16;;;;;;;2.83;1.40;;;;;;;;;;5098945;28;21000;-61
2022/12/31 14:41:50;;;;;;;5.93;1.77;;;;;;;;;;5105062;28;20032;-61
2022/12/31 14:44:25;;;;;;;4.15;1.50;;;;;;;;;;5114044;28;20089;-61
2022/12/31 14:47:00;;;;;;;4.22;1.20;;;;;;;;;;5113013;28;20023;-61
2022/12/31 14:49:37;;;;;;;3.88;1.10;;;;;;;;;;5113260;28;20035;-61
2022/12/31 14:52:14;;;;;;;4.50;1.52;;;;;;;;;;5113281;28;20111;-61
2022/12/31 14:54:40;;;;;;;3.10;1.02;;;;;;;;;;5095508;28;20114;-60
2022/12/31 14:57:26;;;;;;;3.22;1.00;;;;;;;;;;5083791;28;20685;-60
2022/12/31 15:00:20;;;;;;;7.40;1.67;;;;;;;;;;5109269;28;20472;-56
2022/12/31 15:02:52;;;;;;;4.07;1.48;;;;;;;;;;5085715;28;20051;-59
2022/12/31 15:05:23;;;;;;;4.63;1.02;;;;;;;;;;5095674;28;20028;-57
2022/12/31 15:08:00;;;;;;;5.88;1.50;;;;;;;;;;5099637;28;20409;-61
2022/12/31 15:11:02;;;;;;;5.72;1.65;;;;;;;;;;5113112;28;20028;-58
2022/12/31 15:13:36;;;;;;;5.75;1.75;;;;;;;;;;5069267;28;20039;-57
2022/12/31 15:16:07;;;;;;;5.18;1.70;;;;;;;;;;5112738;28;20093;-58
2022/12/31 15:18:45;;;;;;;3.97;1.63;;;;;;;;;;5094886;28;20039;-56
2022/12/31 15:21:25;;;;;;;3.50;1.17;;;;;;;;;;5097966;28;20023;-57
2022/12/31 15:23:51;;;;;;;3.55;1.70;;;;;;;;;;5083556;28;20451;-56
2022/12/31 15:26:25;;;;;;;7.15;1.55;;;;;;;;;;5106302;28;20032;-56
2022/12/31 15:29:06;;;;;;;3.28;1.20;;;;;;;;;;5096576;28;20024;-55
2022/12/31 15:31:35;;;;;;;4.57;1.42;;;;;;;;;;5103702;28;20023;-55
2022/12/31 15:34:06;;;;;;;5.10;1.70;;;;;;;;;;5109523;28;20038;-55